Gibraltar Airport Gibraltar GI
ICAO: LXGB
IATA: GIB
Category: Medium
Scheduled Services: Yes

Elevation: 15 ft
TransAlt. 6000 ft.

Airport Communications:
APP:122.8
GIB TALKDOWN:130.4
TWR:131.2

LXGB Zoom In..

If you have problems with the map follow the link
https://www.worldairports.se/pages/airport.php?
ICAO=LXGB

Runways:

(A) RW 09 length 5016 ft width 151 ft
---- / hdg 91

(B) RW 27 length 5016 ft width 151 ft
---- / hdg 271

Location; LXGB
Day. 26 / Time. 23.50 Zulu
* QNH: 1023
* Temperature: 15° c. 59°f.
* Wind from: 240° Speed 10 kn.
Dewpoint: 11° c.
Visibility: 10 km or more.
No significant clouds are observed below 5000 ft (automated data).

LXGB 262350Z AUTO 24010KT 9999 // NCD 15/11 Q1023


Wind From 240°
Speed 10 kn.

 
 
jpsmedia worldairports.se 2020   terms of use